Time;durP1;ratioP1;P1;durP2;ratioP2;P2;SDS_P1;SDS_P2;PMS_P1;PMS_P2;Temp;Humidity;BMP_temperature;BMP_pressure;BME280_temperature;BME280_humidity;BME280_pressure;Samples;Min_cycle;Max_cycle;Signal;HPM_P1;HPM_P2
2022/09/13 00:02:21;;;;;;;16.63;11.43;;;11.50;99.90;;;;;;10535594;28;20215;-83
2022/09/13 00:07:42;;;;;;;19.27;11.67;;;11.50;99.90;;;;;;10518067;28;20189;-83
2022/09/13 00:13:05;;;;;;;21.23;11.37;;;11.50;99.90;;;;;;10537180;28;20234;-84
2022/09/13 00:18:27;;;;;;;20.10;13.43;;;11.40;99.90;;;;;;10545975;28;20271;-84
2022/09/13 00:23:51;;;;;;;20.00;13.03;;;11.30;99.90;;;;;;10512388;28;20199;-83
2022/09/13 00:29:12;;;;;;;20.00;13.37;;;11.20;99.90;;;;;;10533728;28;20219;-84
2022/09/13 00:34:34;;;;;;;22.07;13.43;;;;;;;;;;10517045;28;20188;-83
2022/09/13 00:39:56;;;;;;;20.83;14.13;;;;;;;;;;10515763;28;20192;-83
2022/09/13 00:45:19;;;;;;;22.53;14.67;;;;;;;;;;10548016;28;20197;-84
2022/09/13 00:50:44;;;;;;;23.87;15.40;;;;;;;;;;10502718;28;20228;-84
2022/09/13 00:56:14;;;;;;;23.47;14.70;;;10.80;99.90;;;;;;10520141;28;20505;-83
2022/09/13 01:01:48;;;;;;;22.30;14.83;;;10.80;99.90;;;;;;10530431;28;20215;-84
2022/09/13 01:07:12;;;;;;;24.80;15.83;;;10.80;99.90;;;;;;10515727;28;20189;-83
2022/09/13 01:12:55;;;;;;;23.80;15.03;;;10.80;99.90;;;;;;10544289;28;20239;-83
2022/09/13 01:18:17;;;;;;;24.30;15.40;;;10.80;99.90;;;;;;10495545;28;20267;-83
2022/09/13 01:24:09;;;;;;;29.27;16.37;;;10.80;99.90;;;;;;10502167;28;20202;-83
2022/09/13 01:29:57;;;;;;;24.47;15.23;;;10.80;99.90;;;;;;10541744;28;20269;-83
2022/09/13 01:36:01;;;;;;;23.80;15.13;;;10.70;99.90;;;;;;10528731;28;20200;-84
2022/09/13 01:41:46;;;;;;;27.73;15.60;;;10.70;99.90;;;;;;10532284;28;20205;-82
2022/09/13 01:47:18;;;;;;;24.87;16.20;;;10.70;99.90;;;;;;10528611;28;20192;-83
2022/09/13 01:53:04;;;;;;;24.93;15.50;;;10.60;99.90;;;;;;10546974;28;20228;-83
2022/09/13 01:58:40;;;;;;;27.97;16.70;;;10.60;99.90;;;;;;10522714;28;20224;-82
2022/09/13 02:04:12;;;;;;;30.47;17.47;;;10.60;99.90;;;;;;10553814;28;20183;-84
2022/09/13 02:09:41;;;;;;;27.63;17.50;;;10.50;99.90;;;;;;10481341;28;20196;-83
2022/09/13 02:15:04;;;;;;;29.57;16.27;;;;;;;;;;10532173;28;20220;-83
2022/09/13 02:20:31;;;;;;;25.63;16.03;;;;;;;;;;10536840;28;20222;-82
2022/09/13 02:25:57;;;;;;;23.43;15.23;;;;;;;;;;10539110;28;20267;-83
2022/09/13 02:31:23;;;;;;;23.90;14.07;;;;;;;;;;10535150;28;20245;-83
2022/09/13 02:36:47;;;;;;;22.70;14.83;;;;;;;;;;10566716;28;20237;-84
2022/09/13 02:42:17;;;;;;;21.57;13.73;;;;;;;;;;10539389;28;20274;-84
2022/09/13 02:47:58;;;;;;;17.13;12.57;;;;;;;;;;10524359;28;20220;-83
2022/09/13 02:53:28;;;;;;;14.67;11.40;;;;;;;;;;10526120;28;20385;-83
2022/09/13 02:58:57;;;;;;;18.23;10.77;;;;;;;;;;10534591;28;20202;-83
2022/09/13 03:04:18;;;;;;;15.93;9.70;;;10.30;99.90;;;;;;10519843;28;20199;-83
2022/09/13 03:09:52;;;;;;;14.73;9.70;;;10.40;99.90;;;;;;10566763;28;20195;-82
2022/09/13 03:15:34;;;;;;;15.07;9.80;;;10.40;99.90;;;;;;10534340;28;20262;-84
2022/09/13 03:21:25;;;;;;;13.43;8.47;;;10.40;99.90;;;;;;10520283;28;20198;-83
2022/09/13 03:26:47;;;;;;;12.53;8.10;;;10.30;99.90;;;;;;10535664;28;20220;-84
2022/09/13 03:32:28;;;;;;;11.27;8.43;;;10.30;99.90;;;;;;10495500;28;20432;-83
2022/09/13 03:38:01;;;;;;;10.57;7.57;;;10.30;99.90;;;;;;10480908;28;20209;-83
2022/09/13 03:43:34;;;;;;;13.50;9.27;;;;;;;;;;10466075;28;20218;-83
2022/09/13 03:48:58;;;;;;;11.53;8.57;;;;;;;;;;10466751;28;20194;-83
2022/09/13 03:54:23;;;;;;;14.10;8.70;;;;;;;;;;10466342;28;20293;-83
2022/09/13 03:59:53;;;;;;;13.13;8.90;;;;;;;;;;10480477;28;20201;-84
2022/09/13 04:05:15;;;;;;;12.43;8.83;;;;;;;;;;10468956;28;20273;-84
2022/09/13 04:10:38;;;;;;;9.97;7.40;;;;;;;;;;10466096;28;20569;-83
2022/09/13 04:16:03;;;;;;;11.13;7.70;;;;;;;;;;10436895;28;20193;-84
2022/09/13 04:21:26;;;;;;;9.20;6.47;;;;;;;;;;10424335;28;20202;-83
2022/09/13 04:26:52;;;;;;;9.47;6.57;;;;;;;;;;10466836;28;20523;-84
2022/09/13 04:32:14;;;;;;;8.67;6.17;;;;;;;;;;10478179;28;20229;-84
2022/09/13 04:37:36;;;;;;;8.97;6.63;;;;;;;;;;10479321;28;20201;-84
2022/09/13 04:42:59;;;;;;;7.27;5.43;;;;;;;;;;10473045;28;20197;-83
2022/09/13 04:48:20;;;;;;;8.37;5.87;;;;;;;;;;10465595;28;20202;-84
2022/09/13 04:53:45;;;;;;;8.97;6.50;;;10.80;99.90;;;;;;10457786;28;20217;-85
2022/09/13 04:59:06;;;;;;;10.43;5.53;;;10.90;99.90;;;;;;10450488;28;20206;-83
2022/09/13 05:04:28;;;;;;;9.30;6.60;;;10.90;99.90;;;;;;10463011;28;20209;-83
2022/09/13 05:09:50;;;;;;;7.37;6.27;;;;;;;;;;10449262;28;20437;-83
2022/09/13 05:15:12;;;;;;;8.20;5.30;;;;;;;;;;10462985;28;20398;-81
2022/09/13 05:20:34;;;;;;;7.00;5.00;;;;;;;;;;10463268;28;20213;-83
2022/09/13 05:26:01;;;;;;;9.73;7.17;;;;;;;;;;10469694;28;20279;-83
2022/09/13 05:31:24;;;;;;;13.67;11.17;;;;;;;;;;10536713;28;20239;-84
2022/09/13 05:36:49;;;;;;;11.33;8.03;;;;;;;;;;10521107;28;20227;-83
2022/09/13 05:42:14;;;;;;;18.73;9.17;;;;;;;;;;10508710;28;20202;-82
2022/09/13 05:47:36;;;;;;;12.60;7.77;;;;;;;;;;10535251;28;20205;-84
2022/09/13 05:52:57;;;;;;;10.60;7.30;;;;;;;;;;10514860;28;20304;-82
2022/09/13 05:58:19;;;;;;;8.93;6.23;;;;;;;;;;10529073;28;20196;-83
2022/09/13 06:03:41;;;;;;;8.43;6.10;;;;;;;;;;10561361;28;20197;-84
2022/09/13 06:09:05;;;;;;;11.37;7.77;;;;;;;;;;10517751;28;20225;-82
2022/09/13 06:14:27;;;;;;;7.60;5.67;;;;;;;;;;10525508;28;20314;-84
2022/09/13 06:19:48;;;;;;;8.27;5.10;;;12.70;99.90;;;;;;10529075;28;20214;-83
2022/09/13 06:25:09;;;;;;;6.27;4.57;;;12.90;99.90;;;;;;10547099;28;20205;-84
2022/09/13 06:30:31;;;;;;;6.53;4.53;;;12.90;99.90;;;;;;10547601;28;20247;-84
2022/09/13 06:35:52;;;;;;;7.23;4.63;;;13.00;99.90;;;;;;10528611;28;20518;-83
2022/09/13 06:41:19;;;;;;;10.93;5.87;;;13.20;99.90;;;;;;10535148;28;20221;-83
2022/09/13 06:46:40;;;;;;;7.40;5.10;;;13.30;99.90;;;;;;10535567;28;20201;-82
2022/09/13 06:52:02;;;;;;;7.70;5.97;;;13.60;99.90;;;;;;10549923;28;20229;-84
2022/09/13 06:57:24;;;;;;;12.82;6.60;;;;;;;;;;10535584;28;20208;-84
2022/09/13 07:02:50;;;;;;;9.77;7.10;;;;;;;;;;10533835;28;20490;-83
2022/09/13 07:08:12;;;;;;;9.27;6.10;;;14.80;99.90;;;;;;10551817;28;20187;-81
2022/09/13 07:13:33;;;;;;;9.50;6.60;;;14.90;99.90;;;;;;10551312;28;20219;-81
2022/09/13 07:18:57;;;;;;;10.98;7.90;;;14.80;99.90;;;;;;10551043;28;20271;-81
2022/09/13 07:24:19;;;;;;;8.77;6.25;;;14.80;99.90;;;;;;10524725;28;20250;-83
2022/09/13 07:29:41;;;;;;;10.10;6.22;;;15.00;99.90;;;;;;10502100;28;20262;-83
2022/09/13 07:35:06;;;;;;;7.80;5.53;;;;;;;;;;10533349;28;20228;-82
2022/09/13 07:40:28;;;;;;;7.45;5.50;;;;;;;;;;10545135;28;20224;-87
2022/09/13 07:45:57;;;;;;;7.70;6.05;;;;;;;;;;10498621;28;20209;-86
2022/09/13 07:51:23;;;;;;;7.95;6.30;;;;;;;;;;10486596;28;20328;-81
2022/09/13 07:56:45;;;;;;;14.40;7.05;;;;;;;;;;10518826;28;20205;-83
2022/09/13 08:02:08;;;;;;;8.98;6.75;;;;;;;;;;10522371;28;20195;-87
2022/09/13 08:07:31;;;;;;;20.63;14.43;;;;;;;;;;10530092;28;20199;-89
2022/09/13 08:12:53;;;;;;;13.40;8.43;;;;;;;;;;10552063;28;20511;-80
2022/09/13 08:18:15;;;;;;;15.55;9.50;;;;;;;;;;10503200;28;20310;-88
2022/09/13 08:23:37;;;;;;;12.60;7.20;;;;;;;;;;10499897;28;20582;-85
2022/09/13 08:29:00;;;;;;;12.38;6.80;;;;;;;;;;10553291;28;20518;-86
2022/09/13 08:34:22;;;;;;;13.80;8.75;;;;;;;;;;10541811;28;20227;-81
2022/09/13 08:39:44;;;;;;;11.52;8.13;;;;;;;;;;10540497;28;20488;-82
2022/09/13 08:45:07;;;;;;;7.55;5.88;;;;;;;;;;10498768;28;20192;-81
2022/09/13 08:50:35;;;;;;;6.90;5.10;;;;;;;;;;10496266;28;20196;-82
2022/09/13 08:56:07;;;;;;;10.05;7.47;;;;;;;;;;10516490;28;20207;-89
2022/09/13 09:01:38;;;;;;;9.63;7.82;;;;;;;;;;10542801;28;20211;-82
2022/09/13 09:07:03;;;;;;;8.77;6.95;;;;;;;;;;10549223;28;20205;-86
2022/09/13 09:12:28;;;;;;;14.23;7.15;;;;;;;;;;10544816;28;20428;-80
2022/09/13 09:18:02;;;;;;;10.90;8.63;;;;;;;;;;10516181;28;20252;-89
2022/09/13 09:23:30;;;;;;;11.40;6.93;;;;;;;;;;10523662;28;20222;-82
2022/09/13 09:28:56;;;;;;;13.93;6.30;;;;;;;;;;10524052;28;20273;-83
2022/09/13 09:34:31;;;;;;;12.02;9.02;;;;;;;;;;10556064;28;20231;-79
2022/09/13 09:39:54;;;;;;;12.77;8.60;;;;;;;;;;10556027;28;20184;-79
2022/09/13 09:45:34;;;;;;;10.27;6.78;;;16.00;1.00;;;;;;10555609;28;20235;-78
2022/09/13 09:50:58;;;;;;;8.65;6.25;;;16.00;1.00;;;;;;10549146;28;20200;-86
2022/09/13 09:56:24;;;;;;;7.75;6.70;;;;;;;;;;10509925;28;20209;-80
2022/09/13 10:01:48;;;;;;;7.97;5.75;;;;;;;;;;10539053;28;20207;-84
2022/09/13 10:07:22;;;;;;;8.05;5.53;;;17.00;99.90;;;;;;10522190;28;20204;-85
2022/09/13 10:12:52;;;;;;;10.90;6.82;;;17.80;99.90;;;;;;10532538;28;20235;-81
2022/09/13 10:18:17;;;;;;;9.48;5.78;;;;;;;;;;10524969;28;20205;-87
2022/09/13 10:24:15;;;;;;;12.82;7.65;;;;;;;;;;10524666;28;20190;-80
2022/09/13 10:29:38;;;;;;;9.55;5.65;;;;;;;;;;10531953;28;20239;-88
2022/09/13 10:35:15;;;;;;;8.98;5.75;;;19.40;99.90;;;;;;10532889;28;20230;-84
2022/09/13 10:40:38;;;;;;;8.43;5.20;;;20.30;96.90;;;;;;10530923;28;20202;-89
2022/09/13 10:46:01;;;;;;;7.03;5.60;;;;;;;;;;10535844;28;20209;-85
2022/09/13 10:51:25;;;;;;;9.18;4.63;;;20.00;99.90;;;;;;10545586;28;20373;-81
2022/09/13 10:56:47;;;;;;;7.43;4.32;;;20.70;99.90;;;;;;10528681;28;20240;-86
2022/09/13 11:02:15;;;;;;;9.43;4.55;;;20.00;95.20;;;;;;10537689;28;20205;-86
2022/09/13 11:08:14;;;;;;;5.43;4.68;;;19.50;96.00;;;;;;10538243;28;20194;-83
2022/09/13 11:13:45;;;;;;;8.32;5.65;;;19.20;97.00;;;;;;10557437;28;20259;-85
2022/09/13 11:19:34;;;;;;;7.20;4.72;;;18.90;97.90;;;;;;10520150;28;20238;-82
2022/09/13 11:25:23;;;;;;;5.10;4.57;;;18.60;99.30;;;;;;10519260;28;20194;-82
2022/09/13 11:38:11;;;;;;;6.60;5.57;;;18.00;99.30;;;;;;10558370;28;20274;-86
2022/09/13 11:44:05;;;;;;;6.72;5.53;;;18.00;99.90;;;;;;10434954;28;20203;-86
2022/09/13 11:49:54;;;;;;;7.93;7.00;;;18.30;99.70;;;;;;10484325;28;20242;-86
2022/09/13 11:55:46;;;;;;;8.75;5.88;;;18.40;99.20;;;;;;10456692;28;20242;-85
2022/09/13 12:01:12;;;;;;;17.02;9.05;;;18.20;99.20;;;;;;10458509;28;20207;-86
2022/09/13 12:06:39;;;;;;;16.75;9.13;;;17.90;1.00;;;;;;10430960;28;20272;-82
2022/09/13 12:12:04;;;;;;;7.72;6.57;;;17.90;99.90;;;;;;10456175;28;20242;-82
2022/09/13 12:17:38;;;;;;;10.70;7.68;;;17.80;99.90;;;;;;10490573;28;20225;-87
2022/09/13 12:23:03;;;;;;;7.07;6.10;;;17.80;1.00;;;;;;10546417;28;20263;-88
2022/09/13 12:28:39;;;;;;;7.88;5.20;;;17.90;1.00;;;;;;10528370;28;20201;-90
2022/09/13 12:34:06;;;;;;;11.73;6.00;;;17.70;1.00;;;;;;10520074;28;20220;-80
2022/09/13 12:40:16;;;;;;;8.00;6.07;;;17.70;1.00;;;;;;10531337;28;20256;-80
2022/09/13 12:45:49;;;;;;;13.00;6.88;;;17.60;1.00;;;;;;10465144;28;20217;-85
2022/09/13 12:51:38;;;;;;;11.80;7.60;;;17.50;1.00;;;;;;10456290;28;20443;-82
2022/09/13 12:57:32;;;;;;;8.07;6.38;;;17.40;88.40;;;;;;10439844;28;20199;-83
2022/09/13 13:02:56;;;;;;;9.52;7.38;;;17.70;1.00;;;;;;10445832;28;20222;-84
2022/09/13 13:08:21;;;;;;;7.00;6.25;;;17.80;1.00;;;;;;10453353;28;20556;-79
2022/09/13 13:13:52;;;;;;;10.73;8.25;;;17.70;1.00;;;;;;10427383;28;20242;-83
2022/09/13 13:19:30;;;;;;;15.88;11.48;;;17.40;1.00;;;;;;10476486;28;20209;-85
2022/09/13 13:24:54;;;;;;;11.68;8.98;;;17.30;10.40;;;;;;10571541;28;20541;-82
2022/09/13 13:30:39;;;;;;;11.93;8.73;;;17.30;99.90;;;;;;10550829;28;20228;-84
2022/09/13 13:36:20;;;;;;;15.40;11.73;;;17.40;99.90;;;;;;10544117;28;20624;-83
2022/09/13 13:42:04;;;;;;;10.95;9.13;;;17.40;99.90;;;;;;10527739;28;20205;-83
2022/09/13 13:47:28;;;;;;;11.52;7.03;;;17.50;99.90;;;;;;10532461;28;20518;-84
2022/09/13 14:06:51;;;;;;;28.85;13.93;;;17.20;1.00;;;;;;10342253;28;20212;-80
2022/09/13 14:12:12;;;;;;;21.30;13.07;;;17.20;1.00;;;;;;10366441;28;20431;-80
2022/09/13 14:17:48;;;;;;;13.88;8.02;;;17.20;1.00;;;;;;10352871;28;20272;-79
2022/09/13 14:23:19;;;;;;;10.50;8.55;;;17.10;1.00;;;;;;10352721;28;20215;-83
2022/09/13 14:28:40;;;;;;;13.45;7.75;;;17.10;1.00;;;;;;10379317;28;20236;-79
2022/09/13 14:34:02;;;;;;;16.63;12.70;;;17.10;1.00;;;;;;10344591;28;20968;-88
2022/09/13 14:39:25;;;;;;;14.98;9.98;;;17.00;1.00;;;;;;10377381;28;20215;-80
2022/09/13 14:44:47;;;;;;;18.00;14.55;;;16.90;1.00;;;;;;10537535;28;20264;-87
2022/09/13 14:50:19;;;;;;;14.10;11.40;;;16.80;1.00;;;;;;10525142;28;20197;-80
2022/09/13 14:56:10;;;;;;;12.73;8.95;;;16.70;1.00;;;;;;10519553;28;20308;-82
2022/09/13 15:01:34;;;;;;;11.82;8.95;;;16.60;1.00;;;;;;10504165;28;20224;-80
2022/09/13 15:07:32;;;;;;;12.38;9.07;;;16.50;1.00;;;;;;10553084;28;20202;-80
2022/09/13 15:12:57;;;;;;;17.33;10.10;;;16.50;99.90;;;;;;10408479;28;20258;-82
2022/09/13 15:18:19;;;;;;;16.33;11.75;;;16.40;99.90;;;;;;10422651;28;20283;-81
2022/09/13 15:23:47;;;;;;;13.93;9.48;;;16.50;99.90;;;;;;10397254;28;20205;-82
2022/09/13 15:29:17;;;;;;;11.90;9.27;;;16.40;99.90;;;;;;10426968;28;20207;-84
2022/09/13 15:34:47;;;;;;;10.98;8.90;;;16.40;99.90;;;;;;10435286;28;20239;-82
2022/09/13 15:40:13;;;;;;;20.05;10.80;;;16.40;99.90;;;;;;10436692;28;20279;-83
2022/09/13 15:45:35;;;;;;;19.70;12.30;;;16.40;99.90;;;;;;10469379;28;20217;-86
2022/09/13 15:51:09;;;;;;;21.63;11.20;;;16.50;99.90;;;;;;10569895;28;20202;-80
2022/09/13 15:56:33;;;;;;;13.70;9.73;;;16.40;99.90;;;;;;10569269;28;20252;-86
2022/09/13 16:01:55;;;;;;;17.30;10.77;;;16.40;99.90;;;;;;10565218;28;20231;-82
2022/09/13 16:07:17;;;;;;;18.17;12.32;;;16.30;99.90;;;;;;10570745;28;20388;-86
2022/09/13 16:12:38;;;;;;;12.25;9.50;;;16.30;99.90;;;;;;10552193;28;20217;-84
2022/09/13 16:17:59;;;;;;;10.40;8.52;;;16.30;99.90;;;;;;10551177;28;20197;-88
2022/09/13 16:23:21;;;;;;;10.98;7.90;;;16.20;99.90;;;;;;10565125;28;20359;-86
2022/09/13 16:28:42;;;;;;;10.85;7.20;;;16.20;99.90;;;;;;10511980;28;20197;-86
2022/09/13 16:34:04;;;;;;;7.75;6.95;;;16.10;99.90;;;;;;10527178;28;20237;-82
2022/09/13 16:39:26;;;;;;;9.82;7.53;;;16.10;99.90;;;;;;10525580;28;20185;-83
2022/09/13 16:44:47;;;;;;;7.55;6.68;;;16.10;99.90;;;;;;10521905;28;20362;-83
2022/09/13 16:50:08;;;;;;;9.48;6.90;;;16.00;99.90;;;;;;10564096;28;20188;-81
2022/09/13 16:55:30;;;;;;;6.78;6.07;;;15.90;99.90;;;;;;10564068;28;20427;-83
2022/09/13 17:00:51;;;;;;;8.32;6.78;;;15.80;99.90;;;;;;10562649;28;20196;-80
2022/09/13 17:06:15;;;;;;;8.80;6.70;;;15.80;99.90;;;;;;10563221;28;20271;-84
2022/09/13 17:11:40;;;;;;;7.28;6.18;;;15.60;99.90;;;;;;10563153;28;20184;-85
2022/09/13 17:17:01;;;;;;;8.75;6.63;;;15.40;99.90;;;;;;10563465;28;20535;-80
2022/09/13 17:22:23;;;;;;;49.28;29.73;;;15.30;99.90;;;;;;10542606;28;20201;-80
2022/09/13 17:27:44;;;;;;;23.85;16.90;;;15.20;99.90;;;;;;10563661;28;20204;-82
2022/09/13 17:33:05;;;;;;;15.95;12.77;;;15.10;99.90;;;;;;10563012;28;20419;-83
2022/09/13 17:38:28;;;;;;;19.98;11.00;;;15.00;99.90;;;;;;10567548;28;20204;-79
2022/09/13 17:43:50;;;;;;;21.88;12.15;;;15.00;99.90;;;;;;10583411;28;20173;-80
2022/09/13 17:49:11;;;;;;;16.02;10.80;;;14.90;99.90;;;;;;10573639;28;20185;-83
2022/09/13 17:54:33;;;;;;;19.15;12.93;;;14.90;99.90;;;;;;10548920;28;20215;-83
2022/09/13 17:59:54;;;;;;;32.42;23.67;;;14.80;99.90;;;;;;10563880;28;20191;-82
2022/09/13 18:05:15;;;;;;;37.38;22.65;;;14.80;99.90;;;;;;10562924;28;20206;-81
2022/09/13 18:10:37;;;;;;;22.70;15.57;;;14.80;99.90;;;;;;10559417;28;20205;-83
2022/09/13 18:16:25;;;;;;;23.95;13.50;;;14.80;99.90;;;;;;10561184;28;20233;-82
2022/09/13 18:21:46;;;;;;;21.02;12.98;;;14.70;99.90;;;;;;10546344;28;20196;-84
2022/09/13 18:27:08;;;;;;;27.80;18.17;;;14.60;99.90;;;;;;10560718;28;20485;-85
2022/09/13 18:32:29;;;;;;;82.95;38.63;;;14.60;99.90;;;;;;10545639;28;20311;-84
2022/09/13 18:37:51;;;;;;;64.20;33.95;;;14.60;99.90;;;;;;10553302;28;20193;-82
2022/09/13 18:43:13;;;;;;;78.20;36.45;;;14.50;99.90;;;;;;10554675;28;20537;-80
2022/09/13 18:48:37;;;;;;;56.88;29.90;;;14.40;99.90;;;;;;10555509;28;20200;-86
2022/09/13 18:54:00;;;;;;;51.20;26.27;;;14.40;99.90;;;;;;10568552;28;20219;-84
2022/09/13 18:59:21;;;;;;;49.95;21.95;;;14.30;99.90;;;;;;10580109;28;20187;-79
2022/09/13 19:04:46;;;;;;;44.78;22.60;;;14.30;99.90;;;;;;10571787;28;20190;-80
2022/09/13 19:10:08;;;;;;;54.00;24.70;;;14.20;99.90;;;;;;10571725;28;20186;-79
2022/09/13 19:15:31;;;;;;;37.42;19.02;;;14.10;99.90;;;;;;10571966;28;20215;-85
2022/09/13 19:21:08;;;;;;;20.20;11.73;;;14.10;99.90;;;;;;10562018;28;20200;-85
2022/09/13 19:26:33;;;;;;;18.90;9.52;;;14.00;99.90;;;;;;10556359;28;20184;-83
2022/09/13 19:31:54;;;;;;;14.95;8.98;;;14.00;99.90;;;;;;10560880;28;20237;-84
2022/09/13 19:37:16;;;;;;;13.73;8.65;;;14.00;99.90;;;;;;10574175;28;20229;-84
2022/09/13 19:42:38;;;;;;;10.23;6.72;;;13.90;99.90;;;;;;10570048;28;20198;-80
2022/09/13 19:48:01;;;;;;;11.38;7.30;;;13.90;99.90;;;;;;10568261;28;20251;-85
2022/09/13 19:53:43;;;;;;;14.85;9.13;;;14.00;99.90;;;;;;10563597;28;20230;-85
2022/09/13 19:59:23;;;;;;;14.60;8.82;;;13.90;99.90;;;;;;10537688;28;20204;-84
2022/09/13 20:04:47;;;;;;;14.68;8.93;;;13.80;99.90;;;;;;10555470;28;20371;-81
2022/09/13 20:10:08;;;;;;;18.88;10.18;;;13.70;99.90;;;;;;10570311;28;20185;-82
2022/09/13 20:15:31;;;;;;;18.13;10.03;;;13.70;99.90;;;;;;10570948;28;20220;-84
2022/09/13 20:20:56;;;;;;;19.25;8.93;;;13.60;99.90;;;;;;10556720;28;20205;-80
2022/09/13 20:26:20;;;;;;;15.88;8.52;;;13.60;99.90;;;;;;10553021;28;20197;-79
2022/09/13 20:31:42;;;;;;;19.10;9.83;;;13.50;99.90;;;;;;10534930;28;20236;-82
2022/09/13 20:37:03;;;;;;;17.43;8.53;;;13.50;99.90;;;;;;10556932;28;20465;-81
2022/09/13 20:42:24;;;;;;;11.23;6.57;;;13.40;99.90;;;;;;10549331;28;20187;-80
2022/09/13 20:47:46;;;;;;;12.33;7.83;;;13.40;99.90;;;;;;10566286;28;20224;-82
2022/09/13 20:53:08;;;;;;;11.88;7.65;;;13.20;99.90;;;;;;10566470;28;20210;-83
2022/09/13 20:58:29;;;;;;;14.70;8.80;;;13.20;99.90;;;;;;10549668;28;20199;-80
2022/09/13 21:04:34;;;;;;;13.53;7.73;;;13.20;99.90;;;;;;10550579;28;20190;-84
2022/09/13 21:10:17;;;;;;;14.95;8.68;;;13.10;99.90;;;;;;10565136;28;20201;-84
2022/09/13 21:15:39;;;;;;;13.30;7.13;;;13.10;99.90;;;;;;10563569;28;20225;-83
2022/09/13 21:21:01;;;;;;;11.03;6.83;;;13.00;99.90;;;;;;10586923;28;20203;-83
2022/09/13 21:26:26;;;;;;;11.63;7.77;;;13.00;99.90;;;;;;10591629;28;20192;-83
2022/09/13 21:31:48;;;;;;;10.17;6.70;;;13.00;99.90;;;;;;10579317;28;20233;-85
2022/09/13 21:37:09;;;;;;;9.73;6.57;;;13.00;99.90;;;;;;10563774;28;20239;-83
2022/09/13 21:42:32;;;;;;;14.07;6.67;;;12.90;99.90;;;;;;10563611;28;20197;-82
2022/09/13 21:47:53;;;;;;;9.23;4.77;;;12.90;99.90;;;;;;10546063;28;20201;-79
2022/09/13 21:53:14;;;;;;;7.43;3.80;;;12.80;99.90;;;;;;10563627;28;20300;-85
2022/09/13 21:58:37;;;;;;;6.83;3.40;;;12.90;99.90;;;;;;10563722;28;20272;-83
2022/09/13 22:03:59;;;;;;;4.75;2.85;;;12.90;99.90;;;;;;10563216;28;20188;-83
2022/09/13 22:09:22;;;;;;;4.43;2.50;;;12.90;99.90;;;;;;10582327;28;20214;-78
2022/09/13 22:14:44;;;;;;;6.77;2.97;;;12.90;99.90;;;;;;10595988;28;20256;-79
2022/09/13 22:20:06;;;;;;;7.43;2.83;;;12.90;99.90;;;;;;10586298;28;20246;-83
2022/09/13 22:25:27;;;;;;;8.17;2.60;;;12.80;99.90;;;;;;10604486;28;20199;-79
2022/09/13 22:30:49;;;;;;;14.77;5.17;;;12.80;99.90;;;;;;10593619;28;20245;-85
2022/09/13 22:36:13;;;;;;;13.53;5.50;;;12.80;99.90;;;;;;10570353;28;20267;-85
2022/09/13 22:41:34;;;;;;;8.03;3.67;;;12.70;99.90;;;;;;10571271;28;20196;-80
2022/09/13 22:46:59;;;;;;;3.73;2.50;;;12.70;99.90;;;;;;10569045;28;20193;-84
2022/09/13 22:52:20;;;;;;;6.90;2.40;;;12.60;99.90;;;;;;10571439;28;20529;-82
2022/09/13 22:57:41;;;;;;;7.93;2.30;;;12.60;99.90;;;;;;10555949;28;20236;-84
2022/09/13 23:03:03;;;;;;;4.40;2.13;;;12.60;99.90;;;;;;10569539;28;20196;-83
2022/09/13 23:08:24;;;;;;;4.03;2.30;;;12.70;99.90;;;;;;10569626;28;20486;-85
2022/09/13 23:13:47;;;;;;;6.60;2.10;;;12.70;99.90;;;;;;10569718;28;20214;-78
2022/09/13 23:19:10;;;;;;;7.73;2.33;;;12.70;99.90;;;;;;10553149;28;20201;-85
2022/09/13 23:24:32;;;;;;;7.07;2.00;;;12.70;99.90;;;;;;10569344;28;20184;-82
2022/09/13 23:29:53;;;;;;;5.00;2.33;;;12.80;99.90;;;;;;10535628;28;20317;-82
2022/09/13 23:35:14;;;;;;;5.10;1.90;;;12.90;99.90;;;;;;10569794;28;20210;-80
2022/09/13 23:40:35;;;;;;;6.70;2.47;;;12.90;99.90;;;;;;10553298;28;20196;-82
2022/09/13 23:45:56;;;;;;;9.53;2.07;;;13.00;99.90;;;;;;10567894;28;20206;-81
2022/09/13 23:51:22;;;;;;;7.10;2.10;;;13.00;99.90;;;;;;10568318;28;20404;-82
2022/09/13 23:56:44;;;;;;;2.70;1.40;;;13.00;99.90;;;;;;10552953;28;20527;-84
